createdAt,value
2022-08-22T00:00:13.652Z,9.93
2022-08-22T00:02:56.358Z,6.10
2022-08-22T00:03:03.228Z,15.07
2022-08-22T00:06:03.482Z,9.52
2022-08-22T00:08:33.144Z,10.23
2022-08-22T00:11:25.656Z,13.18
2022-08-22T00:14:01.502Z,10.50
2022-08-22T00:16:38.478Z,10.38
2022-08-22T00:19:22.050Z,11.57
2022-08-22T00:22:42.452Z,10.77
2022-08-22T00:25:30.318Z,8.45
2022-08-22T00:28:03.924Z,10.13
2022-08-22T00:33:18.050Z,11.43
2022-08-22T00:35:49.694Z,9.27
2022-08-22T00:38:26.791Z,12.55
2022-08-22T00:41:03.648Z,8.43
2022-08-22T00:43:49.358Z,11.60
2022-08-22T00:46:22.933Z,10.35
2022-08-22T00:49:35.174Z,11.15
2022-08-22T00:52:20.773Z,12.27
2022-08-22T00:55:06.943Z,9.32
2022-08-22T00:57:54.783Z,11.75
2022-08-22T01:00:26.558Z,14.52
2022-08-22T01:03:17.517Z,9.98
2022-08-22T01:06:08.153Z,13.27
2022-08-22T01:08:50.104Z,10.35
2022-08-22T01:11:44.568Z,10.07
2022-08-22T01:14:34.763Z,10.52
2022-08-22T01:17:20.243Z,13.65
2022-08-22T01:20:10.865Z,13.20
2022-08-22T01:23:08.509Z,9.75
2022-08-22T01:26:12.869Z,10.82
2022-08-22T01:29:17.934Z,10.48
2022-08-22T01:35:07.224Z,9.75
2022-08-22T01:38:13.931Z,11.05
2022-08-22T01:40:47.570Z,13.43
2022-08-22T01:43:58.586Z,10.73
2022-08-22T01:46:25.205Z,10.85
2022-08-22T01:49:08.777Z,11.23
2022-08-22T01:51:54.151Z,10.23
2022-08-22T01:54:29.607Z,10.30
2022-08-22T01:57:04.108Z,14.15
2022-08-22T01:59:42.636Z,12.05
2022-08-22T02:02:34.957Z,10.95
2022-08-22T02:05:21.821Z,13.85
2022-08-22T02:08:07.232Z,11.45
2022-08-22T02:11:02.541Z,14.50
2022-08-22T02:13:36.825Z,12.55
2022-08-22T02:16:11.171Z,11.63
2022-08-22T02:19:04.122Z,13.48
2022-08-22T02:21:51.740Z,12.93
2022-08-22T02:24:35.573Z,11.35
2022-08-22T02:27:31.418Z,12.00
2022-08-22T02:30:02.273Z,13.35
2022-08-22T02:32:40.941Z,16.45
2022-08-22T02:35:21.315Z,13.85
2022-08-22T02:38:13.166Z,14.70
2022-08-22T02:40:51.112Z,12.65
2022-08-22T02:43:34.726Z,16.52
2022-08-22T02:46:38.534Z,16.67
2022-08-22T02:49:27.404Z,15.82
2022-08-22T02:52:18.949Z,17.60
2022-08-22T02:54:56.458Z,21.48
2022-08-22T02:57:33.866Z,18.60
2022-08-22T03:00:27.757Z,15.02
2022-08-22T03:02:58.732Z,16.02
2022-08-22T03:05:40.095Z,15.88
2022-08-22T03:08:23.220Z,16.02
2022-08-22T03:11:03.019Z,14.60
2022-08-22T03:13:55.889Z,15.20
2022-08-22T03:16:55.134Z,15.05
2022-08-22T03:19:44.063Z,12.38
2022-08-22T03:22:17.337Z,13.20
2022-08-22T03:24:54.484Z,17.23
2022-08-22T03:27:49.840Z,13.52
2022-08-22T03:30:41.566Z,13.10
2022-08-22T03:33:22.917Z,9.75
2022-08-22T03:36:17.680Z,11.98
2022-08-22T03:39:17.705Z,12.93
2022-08-22T03:42:10.191Z,12.70
2022-08-22T03:44:55.280Z,13.05
2022-08-22T03:47:48.884Z,11.73
2022-08-22T03:50:54.538Z,11.93
2022-08-22T03:53:34.232Z,16.35
2022-08-22T03:56:39.149Z,11.38
2022-08-22T03:59:24.444Z,12.40
2022-08-22T04:02:03.598Z,9.50
2022-08-22T04:05:27.893Z,9.23
2022-08-22T04:10:58.955Z,12.38
2022-08-22T04:14:00.301Z,9.98
2022-08-22T04:16:42.018Z,9.25
2022-08-22T04:19:28.023Z,10.35
2022-08-22T04:22:13.014Z,9.77
2022-08-22T04:25:07.252Z,12.15
2022-08-22T04:27:55.810Z,12.07
2022-08-22T04:30:22.910Z,11.32
2022-08-22T04:33:11.070Z,13.05
2022-08-22T04:35:44.686Z,13.68
2022-08-22T04:41:04.742Z,14.38
2022-08-22T04:43:39.300Z,12.55
2022-08-22T04:46:36.726Z,15.10
2022-08-22T04:49:25.936Z,14.48
2022-08-22T04:52:21.017Z,15.45
2022-08-22T04:55:28.801Z,19.60
2022-08-22T04:58:07.557Z,16.05
2022-08-22T05:00:56.939Z,16.10
2022-08-22T05:03:28.942Z,15.68
2022-08-22T05:05:59.170Z,16.73
2022-08-22T05:08:30.334Z,20.50
2022-08-22T05:10:58.462Z,15.18
2022-08-22T05:13:32.598Z,21.02
2022-08-22T05:16:05.681Z,18.58
2022-08-22T05:18:39.368Z,17.80
2022-08-22T05:23:42.976Z,19.05
2022-08-22T05:26:12.386Z,19.75
2022-08-22T05:28:45.493Z,15.43
2022-08-22T05:31:23.271Z,20.40
2022-08-22T05:33:56.432Z,20.10
2022-08-22T05:36:27.313Z,15.48
2022-08-22T05:39:00.650Z,15.82
2022-08-22T05:41:32.453Z,16.40
2022-08-22T05:43:59.646Z,15.07
2022-08-22T05:46:38.783Z,17.92
2022-08-22T05:49:15.449Z,14.73
2022-08-22T05:52:07.598Z,18.05
2022-08-22T05:54:51.470Z,17.48
2022-08-22T05:57:28.858Z,19.40
2022-08-22T06:00:04.363Z,19.05
2022-08-22T06:02:42.559Z,18.50
2022-08-22T06:05:12.187Z,17.80
2022-08-22T06:07:47.466Z,21.80
2022-08-22T06:10:38.816Z,21.35
2022-08-22T06:13:28.061Z,18.95
2022-08-22T06:16:16.976Z,19.40
2022-08-22T06:18:45.835Z,20.33
2022-08-22T06:21:20.917Z,21.83
2022-08-22T06:23:53.514Z,17.42
2022-08-22T06:26:22.285Z,18.70
2022-08-22T06:28:55.403Z,16.00
2022-08-22T06:31:51.002Z,15.77
2022-08-22T06:34:24.523Z,14.77
2022-08-22T06:36:54.434Z,11.70
2022-08-22T06:39:38.156Z,17.23
2022-08-22T06:42:15.873Z,20.73
2022-08-22T06:44:45.318Z,13.18
2022-08-22T06:47:57.112Z,12.52
2022-08-22T06:50:49.346Z,13.87
2022-08-22T06:53:26.616Z,13.65
2022-08-22T06:55:59.391Z,11.40
2022-08-22T06:58:33.887Z,15.07
2022-08-22T07:01:25.101Z,13.95
2022-08-22T07:03:58.204Z,13.52
2022-08-22T07:06:38.578Z,13.30
2022-08-22T07:09:07.168Z,11.63
2022-08-22T07:11:39.590Z,8.88
2022-08-22T07:14:15.515Z,9.85
2022-08-22T07:16:49.738Z,7.00
2022-08-22T07:19:32.857Z,11.25
2022-08-22T07:22:14.026Z,8.52
2022-08-22T07:24:47.457Z,7.32
2022-08-22T07:30:06.839Z,7.45
2022-08-22T07:33:15.290Z,7.93
2022-08-22T07:35:55.933Z,9.98
2022-08-22T07:39:03.810Z,9.73
2022-08-22T07:41:58.129Z,10.35
2022-08-22T07:44:31.200Z,6.60
2022-08-22T07:47:08.882Z,8.38
2022-08-22T07:49:52.224Z,8.63
2022-08-22T07:52:20.170Z,8.07
2022-08-22T07:54:49.118Z,7.70
2022-08-22T07:57:22.627Z,7.70
2022-08-22T08:02:21.180Z,7.65
2022-08-22T08:04:54.909Z,6.18
2022-08-22T08:07:27.427Z,8.30
2022-08-22T08:10:00.024Z,7.57
2022-08-22T08:12:35.131Z,7.07
2022-08-22T08:15:06.220Z,7.60
2022-08-22T08:17:35.530Z,5.07
2022-08-22T08:20:08.666Z,6.07
2022-08-22T08:22:38.854Z,6.03
2022-08-22T08:25:12.188Z,7.10
2022-08-22T08:27:58.212Z,6.78
2022-08-22T08:30:43.462Z,5.20
2022-08-22T08:33:24.975Z,5.20
2022-08-22T08:36:09.069Z,6.25
2022-08-22T08:38:57.949Z,5.68
2022-08-22T08:41:50.818Z,4.93
2022-08-22T08:44:33.862Z,5.15
2022-08-22T08:47:40.665Z,5.68
2022-08-22T08:50:32.793Z,7.00
2022-08-22T08:53:29.373Z,5.47
2022-08-22T08:56:19.497Z,4.63
2022-08-22T08:59:00.308Z,5.05
2022-08-22T09:02:13.709Z,7.20
2022-08-22T09:05:08.803Z,6.82
2022-08-22T09:07:44.589Z,5.95
2022-08-22T09:10:29.425Z,4.28
2022-08-22T09:13:15.168Z,4.13
2022-08-22T09:16:11.469Z,4.80
2022-08-22T09:18:58.153Z,5.75
2022-08-22T09:21:31.401Z,4.80
2022-08-22T09:24:23.427Z,5.43
2022-08-22T09:27:03.624Z,3.75
2022-08-22T09:30:02.464Z,4.88
2022-08-22T09:33:09.218Z,4.45
2022-08-22T09:35:51.037Z,6.10
2022-08-22T09:38:40.341Z,4.32
2022-08-22T09:41:54.269Z,4.97
2022-08-22T09:45:19.390Z,5.53
2022-08-22T09:50:48.777Z,4.57
2022-08-22T09:53:57.985Z,3.63
2022-08-22T09:56:30.692Z,3.33
2022-08-22T09:59:06.784Z,5.03
2022-08-22T10:01:42.772Z,4.95
2022-08-22T10:04:40.354Z,5.43
2022-08-22T10:07:31.269Z,4.22
2022-08-22T10:10:01.438Z,5.93
2022-08-22T10:12:36.565Z,5.25
2022-08-22T10:15:23.889Z,5.82
2022-08-22T10:18:05.545Z,4.35
2022-08-22T10:20:47.205Z,4.68
2022-08-22T10:23:21.322Z,5.10
2022-08-22T10:25:49.891Z,3.80
2022-08-22T10:28:31.830Z,5.32
2022-08-22T10:31:58.449Z,5.88
2022-08-22T10:34:29.839Z,4.50
2022-08-22T10:37:30.798Z,4.60
2022-08-22T10:40:23.785Z,10.27
2022-08-22T10:42:57.512Z,5.78
2022-08-22T10:45:43.509Z,11.48
2022-08-22T10:48:24.405Z,5.97
2022-08-22T10:51:00.881Z,5.05
2022-08-22T10:53:37.878Z,4.95
2022-08-22T10:56:16.021Z,5.75
2022-08-22T10:59:06.752Z,5.68
2022-08-22T11:01:42.036Z,3.97
2022-08-22T11:04:35.320Z,3.88
2022-08-22T11:07:35.829Z,5.10
2022-08-22T11:10:09.164Z,4.88
2022-08-22T11:12:44.525Z,4.80
2022-08-22T11:15:28.434Z,4.00
2022-08-22T11:18:17.587Z,6.20
2022-08-22T11:21:27.506Z,5.47
2022-08-22T11:24:36.263Z,4.50
2022-08-22T11:27:38.232Z,10.30
2022-08-22T11:30:18.718Z,4.38
2022-08-22T11:32:59.433Z,6.60
2022-08-22T11:35:37.253Z,3.58
2022-08-22T11:38:32.531Z,4.82
2022-08-22T11:41:18.289Z,6.30
2022-08-22T11:44:03.679Z,3.33
2022-08-22T11:46:36.958Z,3.58
2022-08-22T11:49:43.431Z,5.13
2022-08-22T11:52:22.777Z,5.07
2022-08-22T11:55:05.721Z,3.28
2022-08-22T11:57:44.353Z,4.78
2022-08-22T12:00:26.431Z,3.42
2022-08-22T12:03:19.781Z,5.10
2022-08-22T12:06:08.125Z,3.65
2022-08-22T12:08:35.402Z,4.05
2022-08-22T12:11:23.741Z,3.85
2022-08-22T12:14:06.654Z,3.70
2022-08-22T12:16:54.938Z,3.85
2022-08-22T12:19:48.930Z,3.55
2022-08-22T12:23:17.019Z,3.22
2022-08-22T12:26:17.952Z,4.43
2022-08-22T12:29:15.583Z,4.28
2022-08-22T12:32:16.585Z,3.55
2022-08-22T12:34:57.668Z,3.58
2022-08-22T12:37:52.265Z,4.15
2022-08-22T12:40:45.976Z,4.93
2022-08-22T12:43:42.635Z,3.90
2022-08-22T12:46:15.545Z,2.00
2022-08-22T12:48:52.087Z,3.38
2022-08-22T12:51:43.682Z,2.92
2022-08-22T12:54:34.882Z,4.78
2022-08-22T12:57:23.283Z,3.55
2022-08-22T12:59:55.789Z,3.08
2022-08-22T13:02:33.947Z,2.70
2022-08-22T13:05:13.694Z,2.70
2022-08-22T13:07:55.003Z,2.95
2022-08-22T13:10:39.289Z,3.22
2022-08-22T13:13:12.138Z,3.47
2022-08-22T13:15:55.529Z,3.03
2022-08-22T13:18:30.424Z,3.42
2022-08-22T13:21:02.625Z,3.53
2022-08-22T13:23:39.659Z,5.32
2022-08-22T13:26:33.024Z,4.57
2022-08-22T13:29:26.871Z,2.47
2022-08-22T13:32:00.306Z,3.33
2022-08-22T13:34:47.452Z,3.50
2022-08-22T13:37:24.614Z,5.30
2022-08-22T13:40:00.334Z,2.90
2022-08-22T13:42:30.884Z,3.33
2022-08-22T13:45:02.968Z,2.67
2022-08-22T13:50:13.957Z,2.63
2022-08-22T13:52:55.268Z,5.25
2022-08-22T13:55:29.577Z,3.75
2022-08-22T13:58:04.715Z,3.35
2022-08-22T14:01:01.479Z,3.63
2022-08-22T14:03:49.659Z,4.28
2022-08-22T14:06:49.777Z,3.40
2022-08-22T14:09:54.426Z,3.42
2022-08-22T14:12:56.809Z,3.08
2022-08-22T14:15:33.072Z,4.20
2022-08-22T14:18:18.517Z,3.35
2022-08-22T14:20:47.532Z,2.05
2022-08-22T14:23:29.288Z,1.95
2022-08-22T14:25:57.427Z,3.95
2022-08-22T14:28:28.648Z,2.63
2022-08-22T14:31:13.487Z,4.47
2022-08-22T14:34:07.404Z,2.60
2022-08-22T14:36:44.205Z,3.17
2022-08-22T14:39:30.073Z,3.05
2022-08-22T14:42:30.113Z,3.15
2022-08-22T14:45:13.243Z,2.30
2022-08-22T14:48:14.069Z,3.58
2022-08-22T14:50:45.694Z,3.07
2022-08-22T14:53:24.939Z,3.45
2022-08-22T14:56:04.567Z,3.05
2022-08-22T14:58:38.932Z,3.15
2022-08-22T15:01:12.557Z,8.88
2022-08-22T15:03:43.587Z,5.40
2022-08-22T15:06:35.276Z,2.20
2022-08-22T15:09:08.021Z,3.00
2022-08-22T15:11:37.368Z,3.85
2022-08-22T15:14:42.655Z,5.90
2022-08-22T15:17:11.281Z,2.65
2022-08-22T15:19:42.182Z,3.88
2022-08-22T15:22:25.618Z,3.10
2022-08-22T15:25:14.236Z,3.45
2022-08-22T15:27:53.817Z,2.60
2022-08-22T15:30:38.380Z,2.08
2022-08-22T15:33:29.512Z,2.33
2022-08-22T15:36:09.744Z,3.88
2022-08-22T15:38:42.113Z,3.40
2022-08-22T15:41:22.645Z,4.05
2022-08-22T15:44:02.518Z,2.80
2022-08-22T15:46:37.903Z,1.80
2022-08-22T15:49:11.090Z,3.53
2022-08-22T15:51:47.174Z,2.88
2022-08-22T15:54:24.665Z,3.92
2022-08-22T15:56:52.194Z,3.22
2022-08-22T15:59:47.774Z,2.60
2022-08-22T16:02:30.555Z,3.00
2022-08-22T16:05:11.435Z,3.15
2022-08-22T16:07:46.245Z,1.85
2022-08-22T16:10:22.334Z,2.58
2022-08-22T16:13:12.080Z,2.83
2022-08-22T16:15:51.552Z,4.47
2022-08-22T16:18:39.138Z,2.03
2022-08-22T16:21:13.222Z,1.98
2022-08-22T16:23:46.532Z,3.00
2022-08-22T16:26:31.538Z,3.85
2022-08-22T16:29:14.812Z,2.42
2022-08-22T16:31:44.994Z,2.38
2022-08-22T16:34:17.829Z,2.28
2022-08-22T16:37:03.332Z,2.80
2022-08-22T16:39:41.563Z,16.30
2022-08-22T16:42:12.608Z,2.13
2022-08-22T16:44:42.262Z,3.33
2022-08-22T16:47:41.496Z,4.22
2022-08-22T16:50:23.846Z,1.95
2022-08-22T16:52:59.798Z,2.53
2022-08-22T16:58:16.035Z,4.97
2022-08-22T17:00:57.677Z,1.77
2022-08-22T17:04:02.394Z,1.45
2022-08-22T17:07:05.916Z,2.55
2022-08-22T17:09:47.907Z,2.45
2022-08-22T17:12:33.097Z,2.45
2022-08-22T17:15:03.492Z,2.70
2022-08-22T17:17:39.969Z,1.95
2022-08-22T17:20:44.152Z,2.47
2022-08-22T17:23:36.121Z,2.35
2022-08-22T17:26:40.332Z,3.22
2022-08-22T17:29:09.986Z,1.85
2022-08-22T17:31:50.230Z,1.67
2022-08-22T17:34:41.938Z,2.55
2022-08-22T17:37:21.531Z,4.43
2022-08-22T17:40:23.080Z,4.47
2022-08-22T17:42:49.863Z,2.85
2022-08-22T17:45:38.357Z,1.80
2022-08-22T17:48:21.544Z,2.55
2022-08-22T17:50:56.040Z,2.60
2022-08-22T17:53:26.907Z,2.83
2022-08-22T17:56:07.126Z,2.25
2022-08-22T17:58:44.361Z,2.25
2022-08-22T18:01:34.617Z,5.05
2022-08-22T18:04:14.583Z,1.52
2022-08-22T18:06:49.118Z,3.30
2022-08-22T18:09:45.134Z,3.25
2022-08-22T18:12:20.965Z,2.17
2022-08-22T18:15:00.583Z,2.90
2022-08-22T18:17:41.691Z,2.03
2022-08-22T18:20:15.391Z,2.58
2022-08-22T18:22:48.857Z,3.60
2022-08-22T18:25:19.008Z,3.08
2022-08-22T18:27:58.281Z,3.40
2022-08-22T18:30:36.860Z,1.80
2022-08-22T18:33:19.930Z,2.65
2022-08-22T18:35:55.110Z,3.75
2022-08-22T18:38:45.456Z,2.03
2022-08-22T18:41:32.031Z,2.97
2022-08-22T18:44:01.047Z,3.45
2022-08-22T18:46:38.772Z,3.25
2022-08-22T18:49:21.008Z,3.17
2022-08-22T18:52:06.968Z,4.10
2022-08-22T18:54:49.360Z,1.92
2022-08-22T18:57:40.291Z,2.58
2022-08-22T19:00:16.242Z,3.20
2022-08-22T19:02:56.295Z,3.40
2022-08-22T19:05:43.480Z,2.95
2022-08-22T19:08:38.586Z,5.10
2022-08-22T19:11:36.419Z,2.30
2022-08-22T19:14:12.713Z,2.72
2022-08-22T19:17:06.656Z,3.33
2022-08-22T19:20:09.714Z,4.00
2022-08-22T19:22:37.535Z,5.18
2022-08-22T19:25:10.551Z,3.75
2022-08-22T19:27:41.619Z,4.57
2022-08-22T19:30:49.244Z,3.90
2022-08-22T19:33:37.883Z,2.58
2022-08-22T19:36:11.696Z,4.50
2022-08-22T19:38:50.611Z,4.60
2022-08-22T19:41:45.338Z,5.82
2022-08-22T19:44:18.308Z,3.17
2022-08-22T19:47:00.774Z,4.60
2022-08-22T19:49:31.701Z,3.42
2022-08-22T19:52:20.197Z,3.22
2022-08-22T19:55:03.024Z,3.20
2022-08-22T19:57:49.409Z,3.65
2022-08-22T20:00:20.835Z,5.05
2022-08-22T20:03:19.753Z,8.15
2022-08-22T20:06:33.747Z,3.35
2022-08-22T20:09:28.292Z,4.40
2022-08-22T20:12:13.269Z,4.22
2022-08-22T20:14:46.392Z,4.72
2022-08-22T20:17:25.520Z,3.30
2022-08-22T20:23:10.791Z,4.25
2022-08-22T20:25:48.690Z,3.78
2022-08-22T20:28:24.639Z,3.70
2022-08-22T20:30:57.991Z,5.45
2022-08-22T20:36:28.433Z,5.68
2022-08-22T20:39:08.594Z,3.97
2022-08-22T20:41:41.357Z,4.55
2022-08-22T20:44:23.067Z,3.42
2022-08-22T20:46:53.160Z,4.55
2022-08-22T20:49:34.328Z,8.05
2022-08-22T20:52:21.446Z,4.32
2022-08-22T20:55:05.153Z,5.82
2022-08-22T21:00:11.595Z,3.83
2022-08-22T21:02:55.188Z,7.50
2022-08-22T21:05:25.132Z,3.90
2022-08-22T21:08:20.834Z,3.78
2022-08-22T21:11:18.401Z,4.05
2022-08-22T21:13:45.086Z,4.63
2022-08-22T21:16:13.521Z,4.72
2022-08-22T21:18:51.878Z,4.20
2022-08-22T21:21:20.691Z,6.10
2022-08-22T21:24:00.851Z,5.30
2022-08-22T21:26:32.607Z,5.32
2022-08-22T21:29:18.489Z,4.45
2022-08-22T21:31:59.341Z,4.53
2022-08-22T21:34:40.989Z,5.75
2022-08-22T21:37:25.102Z,8.23
2022-08-22T21:40:09.114Z,4.93
2022-08-22T21:42:46.365Z,5.50
2022-08-22T21:45:39.387Z,4.00
2022-08-22T21:48:43.919Z,3.83
2022-08-22T21:51:46.029Z,3.92
2022-08-22T21:54:21.125Z,4.80
2022-08-22T21:56:49.820Z,5.10
2022-08-22T21:59:58.989Z,5.18
2022-08-22T22:09:15.272Z,5.60
2022-08-22T22:19:10.165Z,5.85
2022-08-22T22:21:37.545Z,5.28
2022-08-22T22:24:06.565Z,4.50
2022-08-22T22:26:34.889Z,5.97
2022-08-22T22:29:02.775Z,8.50
2022-08-22T22:31:29.425Z,4.00
2022-08-22T22:34:27.555Z,6.68
2022-08-22T22:36:54.865Z,4.45
2022-08-22T22:39:21.884Z,4.68
2022-08-22T22:41:50.158Z,6.10
2022-08-22T22:44:16.841Z,6.28
2022-08-22T22:46:48.262Z,5.60
2022-08-22T22:49:15.047Z,4.80
2022-08-22T22:51:41.678Z,4.72
2022-08-22T22:54:08.313Z,4.50
2022-08-22T22:56:38.338Z,5.65
2022-08-22T22:59:13.033Z,5.50
2022-08-22T23:02:07.619Z,4.97
2022-08-22T23:04:37.023Z,7.30
2022-08-22T23:07:05.906Z,6.38
2022-08-22T23:09:38.621Z,5.70
2022-08-22T23:12:13.509Z,4.68
2022-08-22T23:14:40.425Z,6.00
2022-08-22T23:17:08.107Z,5.18
2022-08-22T23:19:34.914Z,4.65
2022-08-22T23:22:02.238Z,4.47
2022-08-22T23:24:31.133Z,7.90
2022-08-22T23:26:58.556Z,5.35
2022-08-22T23:29:25.945Z,8.27
2022-08-22T23:31:55.482Z,6.40
2022-08-22T23:34:25.561Z,5.05
2022-08-22T23:36:55.222Z,6.68
2022-08-22T23:39:29.649Z,4.87
2022-08-22T23:41:57.775Z,4.22
2022-08-22T23:44:30.755Z,4.30
2022-08-22T23:46:58.448Z,8.13
2022-08-22T23:49:26.373Z,6.97
2022-08-22T23:51:53.541Z,4.15
2022-08-22T23:54:21.082Z,3.88
2022-08-22T23:56:56.209Z,5.97
2022-08-22T23:59:34.758Z,6.15
